createdAt,value
2022-11-24T00:00:03.938Z,981.78
2022-11-24T00:00:14.441Z,981.79
2022-11-24T00:00:24.942Z,981.79
2022-11-24T00:00:35.453Z,981.79
2022-11-24T00:00:45.959Z,981.80
2022-11-24T00:00:56.473Z,981.80
2022-11-24T00:01:06.969Z,981.80
2022-11-24T00:01:17.514Z,981.79
2022-11-24T00:01:27.999Z,981.80
2022-11-24T00:01:38.485Z,981.80
2022-11-24T00:01:49.042Z,981.80
2022-11-24T00:01:59.570Z,981.80
2022-11-24T00:02:10.168Z,981.80
2022-11-24T00:02:20.645Z,981.81
2022-11-24T00:02:31.191Z,981.81
2022-11-24T00:02:41.701Z,981.80
2022-11-24T00:02:52.200Z,981.80
2022-11-24T00:03:02.645Z,981.80
2022-11-24T00:03:13.219Z,981.80
2022-11-24T00:03:23.768Z,981.80
2022-11-24T00:03:34.147Z,981.80
2022-11-24T00:03:44.634Z,981.80
2022-11-24T00:03:55.079Z,981.80
2022-11-24T00:04:05.587Z,981.80
2022-11-24T00:04:16.101Z,981.80
2022-11-24T00:04:26.589Z,981.80
2022-11-24T00:04:37.110Z,981.80
2022-11-24T00:04:47.601Z,981.80
2022-11-24T00:04:58.111Z,981.80
2022-11-24T00:05:08.618Z,981.80
2022-11-24T00:05:19.126Z,981.80
2022-11-24T00:05:29.626Z,981.80
2022-11-24T00:05:40.138Z,981.80
2022-11-24T00:05:50.649Z,981.81
2022-11-24T00:06:01.157Z,981.80
2022-11-24T00:06:11.655Z,981.80
2022-11-24T00:06:22.179Z,981.79
2022-11-24T00:06:32.665Z,981.79
2022-11-24T00:06:43.210Z,981.79
2022-11-24T00:06:53.682Z,981.79
2022-11-24T00:07:04.222Z,981.80
2022-11-24T00:07:14.751Z,981.80
2022-11-24T00:07:25.245Z,981.80
2022-11-24T00:07:35.823Z,981.80
2022-11-24T00:07:46.319Z,981.80
2022-11-24T00:07:56.769Z,981.80
2022-11-24T00:08:07.243Z,981.81
2022-11-24T00:08:17.733Z,981.81
2022-11-24T00:08:28.243Z,981.82
2022-11-24T00:08:38.752Z,981.83
2022-11-24T00:08:49.258Z,981.83
2022-11-24T00:08:59.756Z,981.82
2022-11-24T00:09:10.267Z,981.83
2022-11-24T00:09:20.775Z,981.82
2022-11-24T00:09:31.288Z,981.82
2022-11-24T00:09:41.790Z,981.82
2022-11-24T00:09:52.300Z,981.82
2022-11-24T00:10:02.792Z,981.81
2022-11-24T00:10:13.309Z,981.81
2022-11-24T00:10:23.822Z,981.80
2022-11-24T00:10:34.326Z,981.80
2022-11-24T00:10:44.832Z,981.81
2022-11-24T00:10:55.336Z,981.81
2022-11-24T00:11:05.838Z,981.82
2022-11-24T00:11:16.392Z,981.82
2022-11-24T00:11:26.866Z,981.83
2022-11-24T00:11:37.370Z,981.83
2022-11-24T00:11:47.873Z,981.83
2022-11-24T00:11:58.384Z,981.84
2022-11-24T00:12:08.895Z,981.84
2022-11-24T00:12:19.393Z,981.84
2022-11-24T00:12:29.901Z,981.85
2022-11-24T00:12:40.403Z,981.85
2022-11-24T00:12:50.909Z,981.86
2022-11-24T00:13:01.417Z,981.86
2022-11-24T00:13:11.929Z,981.86
2022-11-24T00:13:22.433Z,981.87
2022-11-24T00:13:32.932Z,981.87
2022-11-24T00:13:43.442Z,981.87
2022-11-24T00:13:53.944Z,981.87
2022-11-24T00:14:04.454Z,981.88
2022-11-24T00:14:14.956Z,981.88
2022-11-24T00:14:25.473Z,981.89
2022-11-24T00:14:36.185Z,981.89
2022-11-24T00:14:46.492Z,981.89
2022-11-24T00:14:56.986Z,981.90
2022-11-24T00:15:07.494Z,981.91
2022-11-24T00:15:17.998Z,981.91
2022-11-24T00:15:28.515Z,981.91
2022-11-24T00:15:39.015Z,981.92
2022-11-24T00:15:49.516Z,981.92
2022-11-24T00:16:00.032Z,981.93
2022-11-24T00:16:10.575Z,981.93
2022-11-24T00:16:21.156Z,981.93
2022-11-24T00:16:31.625Z,981.93
2022-11-24T00:16:42.216Z,981.94
2022-11-24T00:16:52.590Z,981.94
2022-11-24T00:17:03.220Z,981.93
2022-11-24T00:17:13.581Z,981.93
2022-11-24T00:17:24.078Z,981.93
2022-11-24T00:17:34.579Z,981.93
2022-11-24T00:17:45.074Z,981.93
2022-11-24T00:17:55.579Z,981.93
2022-11-24T00:18:06.088Z,981.93
2022-11-24T00:18:16.595Z,981.93
2022-11-24T00:18:27.093Z,981.92
2022-11-24T00:18:37.597Z,981.92
2022-11-24T00:18:48.105Z,981.92
2022-11-24T00:18:58.616Z,981.92
2022-11-24T00:19:09.119Z,981.93
2022-11-24T00:19:20.025Z,981.92
2022-11-24T00:19:30.134Z,981.92
2022-11-24T00:19:40.632Z,981.91
2022-11-24T00:19:51.134Z,981.91
2022-11-24T00:20:01.640Z,981.91
2022-11-24T00:20:12.154Z,981.91
2022-11-24T00:20:22.660Z,981.91
2022-11-24T00:20:33.167Z,981.90
2022-11-24T00:20:43.675Z,981.90
2022-11-24T00:20:54.180Z,981.90
2022-11-24T00:21:04.690Z,981.90
2022-11-24T00:21:15.187Z,981.90
2022-11-24T00:21:25.727Z,981.91
2022-11-24T00:21:36.190Z,981.91
2022-11-24T00:21:46.710Z,981.91
2022-11-24T00:21:57.211Z,981.92
2022-11-24T00:22:07.736Z,981.92
2022-11-24T00:22:18.229Z,981.92
2022-11-24T00:22:28.724Z,981.92
2022-11-24T00:22:39.247Z,981.93
2022-11-24T00:22:49.736Z,981.94
2022-11-24T00:23:00.241Z,981.94
2022-11-24T00:23:18.306Z,981.94
2022-11-24T00:23:21.257Z,981.95
2022-11-24T00:23:31.764Z,981.95
2022-11-24T00:23:42.270Z,981.95
2022-11-24T00:23:52.772Z,981.95
2022-11-24T00:24:03.277Z,981.95
2022-11-24T00:24:13.812Z,981.95
2022-11-24T00:24:24.289Z,981.94
2022-11-24T00:24:35.129Z,981.94
2022-11-24T00:24:45.306Z,981.94
2022-11-24T00:24:55.810Z,981.94
2022-11-24T00:25:06.319Z,981.94
2022-11-24T00:25:16.826Z,981.94
2022-11-24T00:25:27.340Z,981.94
2022-11-24T00:25:37.842Z,981.94
2022-11-24T00:25:48.350Z,981.94
2022-11-24T00:25:58.860Z,981.93
2022-11-24T00:26:09.370Z,981.93
2022-11-24T00:26:19.875Z,981.94
2022-11-24T00:26:30.390Z,981.94
2022-11-24T00:26:40.894Z,981.94
2022-11-24T00:26:51.399Z,981.94
2022-11-24T00:27:01.934Z,981.94
2022-11-24T00:27:12.420Z,981.95
2022-11-24T00:27:22.928Z,981.95
2022-11-24T00:27:33.432Z,981.95
2022-11-24T00:27:43.945Z,981.95
2022-11-24T00:27:54.450Z,981.96
2022-11-24T00:28:04.959Z,981.96
2022-11-24T00:28:15.463Z,981.96
2022-11-24T00:28:25.971Z,981.97
2022-11-24T00:28:36.477Z,981.97
2022-11-24T00:28:46.981Z,981.97
2022-11-24T00:28:57.505Z,981.97
2022-11-24T00:29:08.043Z,981.96
2022-11-24T00:29:18.504Z,981.96
2022-11-24T00:29:29.012Z,981.96
2022-11-24T00:29:39.516Z,981.96
2022-11-24T00:29:50.021Z,981.96
2022-11-24T00:30:00.528Z,981.97
2022-11-24T00:30:11.036Z,981.97
2022-11-24T00:30:21.540Z,981.98
2022-11-24T00:30:32.132Z,981.99
2022-11-24T00:30:42.620Z,981.98
2022-11-24T00:30:53.171Z,981.98
2022-11-24T00:31:03.681Z,981.99
2022-11-24T00:31:17.181Z,981.98
2022-11-24T00:31:24.627Z,981.98
2022-11-24T00:31:35.231Z,981.98
2022-11-24T00:31:45.586Z,981.98
2022-11-24T00:31:56.114Z,981.98
2022-11-24T00:32:06.599Z,981.98
2022-11-24T00:32:17.103Z,981.97
2022-11-24T00:32:27.629Z,981.97
2022-11-24T00:32:38.117Z,981.97
2022-11-24T00:32:48.622Z,981.96
2022-11-24T00:32:59.131Z,981.96
2022-11-24T00:33:09.635Z,981.97
2022-11-24T00:33:20.139Z,981.96
2022-11-24T00:33:30.650Z,981.96
2022-11-24T00:33:41.153Z,981.96
2022-11-24T00:33:51.660Z,981.96
2022-11-24T00:34:02.169Z,981.96
2022-11-24T00:34:12.669Z,981.96
2022-11-24T00:34:23.177Z,981.96
2022-11-24T00:34:33.873Z,981.96
2022-11-24T00:34:44.184Z,981.96
2022-11-24T00:34:54.688Z,981.96
2022-11-24T00:35:05.195Z,981.96
2022-11-24T00:35:15.700Z,981.97
2022-11-24T00:35:26.207Z,981.97
2022-11-24T00:35:36.711Z,981.97
2022-11-24T00:35:47.235Z,981.98
2022-11-24T00:35:57.734Z,981.97
2022-11-24T00:36:08.230Z,981.97
2022-11-24T00:36:18.773Z,981.97
2022-11-24T00:36:29.245Z,981.98
2022-11-24T00:36:39.753Z,981.98
2022-11-24T00:36:50.257Z,981.98
2022-11-24T00:37:00.770Z,981.99
2022-11-24T00:37:11.293Z,981.99
2022-11-24T00:37:21.782Z,981.99
2022-11-24T09:39:28.787Z,986.62
2022-11-24T09:39:39.238Z,986.62
2022-11-24T09:39:49.754Z,986.63
2022-11-24T09:40:00.260Z,986.63
2022-11-24T09:40:10.771Z,986.63
2022-11-24T09:40:21.368Z,986.63
2022-11-24T09:40:31.795Z,986.63
2022-11-24T09:40:42.305Z,986.62
2022-11-24T09:40:52.815Z,986.64
2022-11-24T09:41:03.326Z,986.65
2022-11-24T09:41:13.855Z,986.64
2022-11-24T09:41:24.355Z,986.64
2022-11-24T09:41:34.876Z,986.64
2022-11-24T09:41:45.377Z,986.65
2022-11-24T09:41:55.880Z,986.66
2022-11-24T09:42:06.392Z,986.66
2022-11-24T09:42:16.902Z,986.65
2022-11-24T09:42:27.433Z,986.66
2022-11-24T09:42:37.931Z,986.66
2022-11-24T09:42:53.407Z,986.67
2022-11-24T09:42:59.937Z,986.67
2022-11-24T09:43:09.453Z,986.69
2022-11-24T09:43:19.955Z,986.68
2022-11-24T09:43:30.473Z,986.66
2022-11-24T09:43:40.973Z,986.66
2022-11-24T09:43:51.490Z,986.66
2022-11-24T09:44:01.996Z,986.67
2022-11-24T09:44:12.503Z,986.67
2022-11-24T09:44:23.017Z,986.68
2022-11-24T09:44:33.543Z,986.67
2022-11-24T09:44:44.030Z,986.68
2022-11-24T09:44:54.543Z,986.67
2022-11-24T09:45:05.050Z,986.67
2022-11-24T09:45:15.578Z,986.68
2022-11-24T09:45:48.897Z,986.68
2022-11-24T09:46:03.976Z,986.68
2022-11-24T09:46:05.432Z,986.68
2022-11-24T09:46:09.238Z,986.68
2022-11-24T09:46:18.715Z,986.68
2022-11-24T09:46:29.214Z,986.69
2022-11-24T09:46:39.694Z,986.70
2022-11-24T09:46:50.198Z,986.70
2022-11-24T09:47:00.763Z,986.69
2022-11-24T09:47:11.161Z,986.69
2022-11-24T09:47:21.667Z,986.70
2022-11-24T09:47:32.177Z,986.70
2022-11-24T09:47:42.690Z,986.69
2022-11-24T09:47:53.202Z,986.69
2022-11-24T09:48:03.706Z,986.68
2022-11-24T09:48:14.215Z,986.68
2022-11-24T09:48:24.728Z,986.68
2022-11-24T09:48:35.248Z,986.69
2022-11-24T09:48:45.745Z,986.69
2022-11-24T09:48:56.251Z,986.69
2022-11-24T09:49:06.761Z,986.67
2022-11-24T09:49:17.272Z,986.68
2022-11-24T09:49:27.784Z,986.68
2022-11-24T09:49:38.289Z,986.68
2022-11-24T09:49:51.513Z,986.68
2022-11-24T09:49:59.326Z,986.69
2022-11-24T09:50:09.843Z,986.69
2022-11-24T09:50:20.406Z,986.69
2022-11-24T09:50:30.840Z,986.68
2022-11-24T09:50:41.352Z,986.69
2022-11-24T09:50:51.856Z,986.69
2022-11-24T09:51:02.364Z,986.69
2022-11-24T09:51:12.873Z,986.68
2022-11-24T09:51:23.401Z,986.69
2022-11-24T09:51:33.928Z,986.69
2022-11-24T09:51:44.408Z,986.70
2022-11-24T09:51:54.936Z,986.70
2022-11-24T09:52:05.424Z,986.69
2022-11-24T09:52:15.935Z,986.70
2022-11-24T09:52:26.448Z,986.69
2022-11-24T09:52:36.970Z,986.69
2022-11-24T09:52:47.465Z,986.70
2022-11-24T09:52:57.990Z,986.70
2022-11-24T09:53:08.483Z,986.69
2022-11-24T09:53:18.988Z,986.69
2022-11-24T09:54:11.007Z,986.70
2022-11-24T09:54:21.088Z,986.71
2022-11-24T09:54:31.638Z,986.71
2022-11-24T09:54:42.131Z,986.71
2022-11-24T09:54:52.611Z,986.71
2022-11-24T09:55:03.127Z,986.70
2022-11-24T09:55:13.644Z,986.70
2022-11-24T09:55:24.139Z,986.71
2022-11-24T09:55:34.681Z,986.70
2022-11-24T09:55:45.236Z,986.70
2022-11-24T09:55:55.684Z,986.70
2022-11-24T09:56:06.227Z,986.69
2022-11-24T09:56:16.697Z,986.70
2022-11-24T09:56:27.218Z,986.70
2022-11-24T09:56:37.718Z,986.69
2022-11-24T09:56:48.228Z,986.70
2022-11-24T09:56:58.752Z,986.69
2022-11-24T09:57:09.275Z,986.69
2022-11-24T09:57:19.758Z,986.70
2022-11-24T09:57:34.280Z,986.69
2022-11-24T09:57:41.798Z,986.70
2022-11-24T09:57:51.297Z,986.70
2022-11-24T09:58:01.798Z,986.71
2022-11-24T09:58:12.301Z,986.71
2022-11-24T09:58:22.836Z,986.72
2022-11-24T09:58:33.445Z,986.72
2022-11-24T09:58:43.960Z,986.72
2022-11-24T09:58:54.356Z,986.71
2022-11-24T09:59:04.863Z,986.70
2022-11-24T09:59:15.368Z,986.70
2022-11-24T09:59:25.879Z,986.70
2022-11-24T09:59:36.966Z,986.68
2022-11-24T09:59:46.907Z,986.69
2022-11-24T09:59:57.407Z,986.69
2022-11-24T10:00:07.921Z,986.70
2022-11-24T10:00:18.467Z,986.70
2022-11-24T10:00:28.941Z,986.71
2022-11-24T10:00:39.443Z,986.70
2022-11-24T10:00:49.984Z,986.70
2022-11-24T10:01:00.561Z,986.71
2022-11-24T10:01:11.046Z,986.72
2022-11-24T10:01:21.571Z,986.71
2022-11-24T10:01:32.082Z,986.72
2022-11-24T10:01:42.607Z,986.72
2022-11-24T10:01:53.047Z,986.72
2022-11-24T10:02:03.606Z,986.72
2022-11-24T10:02:14.039Z,986.72
2022-11-24T10:02:24.543Z,986.72
2022-11-24T10:02:35.097Z,986.71
2022-11-24T10:02:45.561Z,986.72
2022-11-24T10:02:56.069Z,986.72
2022-11-24T10:03:06.600Z,986.72
2022-11-24T10:03:17.095Z,986.71
2022-11-24T10:03:27.601Z,986.72
2022-11-24T10:03:38.162Z,986.72
2022-11-24T10:03:48.624Z,986.73
2022-11-24T10:04:05.618Z,986.73
2022-11-24T10:04:10.647Z,986.73
2022-11-24T10:04:20.271Z,986.72
2022-11-24T10:04:30.878Z,986.73
2022-11-24T10:04:41.254Z,986.72
2022-11-24T10:04:51.747Z,986.73
2022-11-24T10:05:02.276Z,986.73
2022-11-24T10:05:12.759Z,986.73
2022-11-24T10:05:23.225Z,986.73
2022-11-24T10:05:33.733Z,986.73
2022-11-24T10:05:44.257Z,986.72
2022-11-24T10:05:54.751Z,986.73
2022-11-24T10:06:05.280Z,986.73
2022-11-24T10:06:15.819Z,986.73
2022-11-24T10:06:26.278Z,986.73
2022-11-24T10:06:36.796Z,986.73
2022-11-24T10:06:47.300Z,986.73
2022-11-24T10:07:05.335Z,986.74
2022-11-24T10:07:08.393Z,986.74
2022-11-24T10:07:18.888Z,986.74
2022-11-24T10:07:29.405Z,986.73
2022-11-24T10:07:39.921Z,986.75
2022-11-24T10:07:50.423Z,986.75
2022-11-24T10:08:00.930Z,986.74
2022-11-24T10:08:11.386Z,986.74
2022-11-24T10:08:21.897Z,986.75
2022-11-24T10:08:32.402Z,986.76
2022-11-24T10:08:42.938Z,986.75
2022-11-24T10:08:53.445Z,986.75
2022-11-24T10:09:03.941Z,986.75
2022-11-24T10:09:14.466Z,986.75
2022-11-24T10:09:24.958Z,986.76
2022-11-24T10:09:35.845Z,986.75
2022-11-24T10:09:45.978Z,986.76
2022-11-24T10:09:56.497Z,986.76
2022-11-24T10:10:06.998Z,986.76
2022-11-24T10:10:24.240Z,986.75
2022-11-24T10:10:29.020Z,986.75
2022-11-24T10:10:38.525Z,986.76
2022-11-24T10:10:49.036Z,986.76
2022-11-24T10:10:59.575Z,986.76
2022-11-24T10:11:10.050Z,986.76
2022-11-24T10:11:20.562Z,986.76
2022-11-24T10:11:31.072Z,986.79
2022-11-24T10:11:41.588Z,986.75
2022-11-24T10:11:52.097Z,986.74
2022-11-24T10:12:02.614Z,986.76
2022-11-24T10:12:13.116Z,986.77
2022-11-24T10:12:23.636Z,986.77
2022-11-24T10:12:34.162Z,986.77
2022-11-24T10:12:44.656Z,986.77
2022-11-24T10:12:55.171Z,986.75
2022-11-24T10:13:05.676Z,986.75
2022-11-24T10:13:16.187Z,986.76
2022-11-24T10:13:26.699Z,986.76
2022-11-24T10:13:37.242Z,986.77
2022-11-24T10:13:47.723Z,986.76
2022-11-24T10:13:58.229Z,986.76
2022-11-24T10:14:08.745Z,986.77
2022-11-24T10:14:19.251Z,986.76
2022-11-24T10:14:29.769Z,986.77
2022-11-24T10:14:40.307Z,986.76
2022-11-24T10:14:50.791Z,986.76
2022-11-24T10:15:01.302Z,986.77
2022-11-24T10:15:11.811Z,986.76
2022-11-24T10:15:22.326Z,986.77
2022-11-24T10:15:32.885Z,986.78
2022-11-24T10:15:43.411Z,986.79
2022-11-24T10:15:53.956Z,986.78
2022-11-24T10:16:04.454Z,986.78
2022-11-24T10:16:14.979Z,986.77
2022-11-24T10:16:25.458Z,986.78
2022-11-24T10:16:35.899Z,986.77
2022-11-24T10:16:46.401Z,986.78
2022-11-24T10:16:56.914Z,986.77
2022-11-24T10:17:07.419Z,986.77
2022-11-24T10:17:17.930Z,986.78
2022-11-24T10:17:28.441Z,986.77
2022-11-24T10:17:38.951Z,986.78
2022-11-24T10:17:49.456Z,986.80
2022-11-24T10:17:59.973Z,986.78
2022-11-24T10:18:16.133Z,986.76
2022-11-24T10:18:21.996Z,986.76
2022-11-24T10:18:31.504Z,986.77
2022-11-24T10:18:42.015Z,986.77
2022-11-24T10:18:52.531Z,986.78
2022-11-24T10:19:03.037Z,986.77
2022-11-24T10:19:13.555Z,986.77
2022-11-24T10:19:30.462Z,986.77
2022-11-24T10:19:37.469Z,986.76
2022-11-24T10:19:45.084Z,986.75
2022-11-24T10:19:55.592Z,986.76
2022-11-24T10:20:06.104Z,986.78
2022-11-24T10:20:16.613Z,986.77
2022-11-24T10:20:27.178Z,986.76
2022-11-24T10:20:37.633Z,986.77
2022-11-24T10:20:48.145Z,986.77
2022-11-24T10:20:58.654Z,986.76
2022-11-24T10:21:09.169Z,986.77
2022-11-24T10:21:19.674Z,986.74
2022-11-24T10:21:30.191Z,986.76
2022-11-24T10:21:40.699Z,986.76
2022-11-24T10:21:51.210Z,986.75
2022-11-24T10:22:01.723Z,986.72
2022-11-24T10:22:12.235Z,986.74
2022-11-24T10:22:22.745Z,986.72
2022-11-24T10:22:33.260Z,986.75
2022-11-24T10:22:43.775Z,986.75
2022-11-24T10:22:54.277Z,986.74
2022-11-24T10:23:04.782Z,986.75
2022-11-24T10:23:15.296Z,986.73
2022-11-24T10:23:25.807Z,986.74
2022-11-24T10:23:39.748Z,986.74
2022-11-24T10:23:46.835Z,986.74
2022-11-24T10:23:57.334Z,986.75
2022-11-24T10:24:07.844Z,986.74
2022-11-24T10:24:18.438Z,986.74
2022-11-24T10:24:28.871Z,986.74
2022-11-24T10:24:39.396Z,986.73
2022-11-24T10:24:49.887Z,986.74
2022-11-24T10:25:00.403Z,986.74
2022-11-24T10:25:10.903Z,986.76
2022-11-24T10:25:21.415Z,986.75
2022-11-24T10:25:31.949Z,986.74
2022-11-24T10:25:42.435Z,986.76
2022-11-24T10:25:52.946Z,986.75
2022-11-24T10:26:03.458Z,986.76
2022-11-24T10:26:13.967Z,986.77
2022-11-24T10:26:24.486Z,986.76
2022-11-24T10:26:34.993Z,986.77
2022-11-24T10:26:45.505Z,986.79
2022-11-24T10:26:56.012Z,986.78
2022-11-24T10:27:06.529Z,986.78
2022-11-24T10:27:17.033Z,986.78
2022-11-24T10:27:27.545Z,986.78
2022-11-24T10:27:38.059Z,986.79
2022-11-24T10:27:48.584Z,986.79
2022-11-24T10:27:59.075Z,986.80
2022-11-24T10:28:09.585Z,986.80
2022-11-24T10:28:20.116Z,986.80
2022-11-24T10:28:30.616Z,986.80
2022-11-24T10:28:41.117Z,986.80
2022-11-24T10:28:51.630Z,986.80
2022-11-24T10:29:02.142Z,986.80
2022-11-24T10:29:12.653Z,986.81
2022-11-24T10:29:23.166Z,986.81
2022-11-24T10:29:33.932Z,986.81
2022-11-24T10:29:44.189Z,986.82
2022-11-24T10:29:54.707Z,986.81
2022-11-24T10:30:05.215Z,986.81
2022-11-24T10:30:15.724Z,986.82
2022-11-24T10:30:26.239Z,986.82
2022-11-24T10:30:36.821Z,986.82
2022-11-24T10:30:47.311Z,986.83
2022-11-24T10:30:57.860Z,986.82
2022-11-24T10:31:08.313Z,986.82
2022-11-24T10:31:18.991Z,986.83
2022-11-24T10:31:29.368Z,986.83
2022-11-24T10:31:39.820Z,986.84
2022-11-24T10:31:50.334Z,986.85
2022-11-24T10:32:00.863Z,986.84
2022-11-24T10:32:11.360Z,986.84
2022-11-24T10:32:21.912Z,986.85
2022-11-24T10:32:32.400Z,986.87
2022-11-24T10:32:42.895Z,986.84
2022-11-24T10:32:53.406Z,986.84
2022-11-24T10:33:04.842Z,986.85
2022-11-24T10:33:14.421Z,986.86
2022-11-24T10:33:30.374Z,986.87
2022-11-24T10:33:36.447Z,986.88
2022-11-24T10:33:45.952Z,986.88
2022-11-24T10:33:56.465Z,986.89
2022-11-24T10:34:06.974Z,986.88
2022-11-24T10:34:17.491Z,986.89
2022-11-24T10:34:28.001Z,986.89
2022-11-24T10:34:38.515Z,986.89
2022-11-24T10:34:49.025Z,986.89
2022-11-24T10:34:59.539Z,986.90
2022-11-24T10:35:10.051Z,986.90
2022-11-24T10:35:20.573Z,986.89
2022-11-24T10:35:31.068Z,986.91
2022-11-24T10:35:41.581Z,986.91
2022-11-24T10:35:52.095Z,986.90
2022-11-24T10:36:02.606Z,986.90
2022-11-24T10:36:13.117Z,986.88
2022-11-24T10:36:23.628Z,986.89
2022-11-24T10:36:34.138Z,986.91
2022-11-24T10:36:44.655Z,986.92
2022-11-24T10:36:55.162Z,986.93
2022-11-24T10:37:05.669Z,986.94
2022-11-24T10:37:16.184Z,986.92
2022-11-24T10:37:26.720Z,986.92
2022-11-24T10:37:37.210Z,986.92
2022-11-24T10:37:47.736Z,986.92
2022-11-24T10:37:58.223Z,986.92
2022-11-24T10:38:08.734Z,986.93
2022-11-24T10:38:19.245Z,986.94
2022-11-24T10:38:29.761Z,986.93
2022-11-24T10:38:40.265Z,986.95
2022-11-24T10:38:50.780Z,986.92
2022-11-24T10:39:01.288Z,986.96
2022-11-24T10:39:11.809Z,986.96
2022-11-24T10:39:22.312Z,986.93
2022-11-24T10:39:33.289Z,986.94
2022-11-24T10:39:43.354Z,986.95
2022-11-24T10:39:59.733Z,986.94
2022-11-24T10:40:05.358Z,986.95
2022-11-24T10:40:33.443Z,986.96
2022-11-24T10:40:55.439Z,986.97
2022-11-24T10:40:58.486Z,986.98
2022-11-24T10:41:02.720Z,986.97
2022-11-24T10:41:07.434Z,986.97
2022-11-24T10:41:17.946Z,986.96
2022-11-24T10:41:28.479Z,986.95
2022-11-24T10:41:38.972Z,986.96
2022-11-24T10:41:49.486Z,986.96
2022-11-24T10:42:00.030Z,986.96
2022-11-24T10:42:10.508Z,986.96
2022-11-24T10:42:21.026Z,986.97
2022-11-24T10:42:31.563Z,986.98
2022-11-24T10:42:42.060Z,986.97
2022-11-24T10:42:52.560Z,986.97
2022-11-24T10:43:03.071Z,986.98
2022-11-24T10:43:13.582Z,986.98
2022-11-24T10:43:24.093Z,986.98
2022-11-24T10:43:34.603Z,986.97
2022-11-24T10:43:45.118Z,986.97
2022-11-24T10:43:55.626Z,986.98
2022-11-24T10:44:06.137Z,986.97
2022-11-24T10:44:16.652Z,986.97
2022-11-24T10:44:27.182Z,986.98
2022-11-24T10:44:37.678Z,986.98
2022-11-24T10:44:48.182Z,986.98
2022-11-24T10:44:58.699Z,986.98
2022-11-24T10:45:09.240Z,986.98
2022-11-24T10:45:19.745Z,986.99
2022-11-24T10:45:30.232Z,987.00
2022-11-24T10:45:40.753Z,986.99
2022-11-24T10:45:51.307Z,987.00
2022-11-24T10:46:01.856Z,987.00
2022-11-24T10:46:12.311Z,986.98
2022-11-24T10:46:22.920Z,986.99
2022-11-24T10:46:39.026Z,987.00
2022-11-24T10:46:44.925Z,986.99
2022-11-24T10:46:54.395Z,986.97
2022-11-24T10:47:04.832Z,986.98
2022-11-24T10:47:15.357Z,986.98
2022-11-24T10:47:25.860Z,986.97
2022-11-24T10:47:36.418Z,986.98
2022-11-24T10:47:46.885Z,986.98
2022-11-24T10:47:57.394Z,986.98
2022-11-24T10:48:07.903Z,986.99
2022-11-24T10:48:18.417Z,986.99
2022-11-24T10:48:28.926Z,986.99
2022-11-24T10:48:39.437Z,986.98
2022-11-24T10:48:49.946Z,986.97
2022-11-24T10:49:00.459Z,986.98
2022-11-24T10:49:10.969Z,986.96
2022-11-24T10:49:21.481Z,986.96
2022-11-24T10:49:32.207Z,986.97
2022-11-24T10:49:42.502Z,986.97
2022-11-24T10:49:53.012Z,986.97
2022-11-24T10:50:03.532Z,986.97
2022-11-24T10:50:14.039Z,986.97
2022-11-24T10:50:24.565Z,986.96
2022-11-24T10:50:35.062Z,986.98
2022-11-24T10:50:45.573Z,986.96
2022-11-24T10:50:56.111Z,986.96
2022-11-24T10:51:06.597Z,986.97
2022-11-24T10:51:17.104Z,986.96
2022-11-24T10:51:27.617Z,986.96
2022-11-24T10:51:38.127Z,986.96
2022-11-24T10:51:48.634Z,986.96
2022-11-24T10:51:59.148Z,986.97
2022-11-24T10:52:09.655Z,986.97
2022-11-24T10:52:20.170Z,986.97
2022-11-24T10:52:30.682Z,986.99
2022-11-24T10:52:41.192Z,986.99
2022-11-24T10:52:51.703Z,986.98
2022-11-24T10:53:02.259Z,986.97
2022-11-24T10:53:12.732Z,986.97
2022-11-24T10:53:23.249Z,986.98
2022-11-24T10:53:33.759Z,986.98
2022-11-24T10:53:44.272Z,986.98
2022-11-24T10:53:54.815Z,986.99
2022-11-24T10:54:05.293Z,986.99
2022-11-24T10:54:15.805Z,987.00
2022-11-24T10:54:26.321Z,987.00
2022-11-24T10:54:36.837Z,987.00
2022-11-24T10:54:47.363Z,986.99
2022-11-24T10:54:57.859Z,987.00
2022-11-24T10:55:08.364Z,986.99
2022-11-24T10:55:21.547Z,986.99
2022-11-24T10:55:29.394Z,986.99
2022-11-24T10:55:39.898Z,987.01
2022-11-24T10:55:50.414Z,987.01
2022-11-24T10:56:00.924Z,987.01
2022-11-24T10:56:11.434Z,987.02
2022-11-24T10:56:21.952Z,987.03
2022-11-24T10:56:32.462Z,987.02
2022-11-24T10:56:42.975Z,987.02
2022-11-24T10:56:53.483Z,987.03
2022-11-24T10:57:03.998Z,987.02
2022-11-24T10:57:14.507Z,987.03
2022-11-24T10:57:25.018Z,987.03
2022-11-24T10:57:35.527Z,987.04
2022-11-24T10:57:46.040Z,987.00
2022-11-24T10:57:56.550Z,987.02
2022-11-24T10:58:07.061Z,987.03
2022-11-24T10:58:17.572Z,987.05
2022-11-24T10:58:31.564Z,987.05
2022-11-24T10:58:39.599Z,987.05
2022-11-24T10:58:49.105Z,987.06
2022-11-24T10:58:59.642Z,987.06
2022-11-24T10:59:10.130Z,987.07
2022-11-24T10:59:20.641Z,987.06
2022-11-24T10:59:31.146Z,987.06
2022-11-24T10:59:41.655Z,987.05
2022-11-24T10:59:52.169Z,987.06
2022-11-24T11:00:02.680Z,987.06
2022-11-24T11:00:13.191Z,987.06
2022-11-24T11:00:23.717Z,987.06
2022-11-24T11:00:34.231Z,987.05
2022-11-24T11:00:44.718Z,987.05
2022-11-24T11:00:55.228Z,987.06
2022-11-24T11:01:05.819Z,987.07
2022-11-24T11:01:16.287Z,987.07
2022-11-24T11:01:26.796Z,987.07
2022-11-24T11:01:37.330Z,987.07
2022-11-24T11:01:47.846Z,987.08
2022-11-24T11:01:58.364Z,987.06
2022-11-24T11:02:08.898Z,987.07
2022-11-24T11:02:19.362Z,987.06
2022-11-24T11:02:29.941Z,987.06
2022-11-24T11:02:40.387Z,987.06
2022-11-24T11:02:50.899Z,987.06
2022-11-24T11:03:01.434Z,987.07
2022-11-24T11:03:11.932Z,987.08
2022-11-24T11:03:22.383Z,987.08
2022-11-24T11:03:32.918Z,987.08
2022-11-24T11:03:43.407Z,987.07
2022-11-24T11:03:53.927Z,987.08
2022-11-24T11:04:04.429Z,987.08
2022-11-24T11:04:14.939Z,987.08
2022-11-24T11:04:25.451Z,987.07
2022-11-24T11:04:35.962Z,987.07
2022-11-24T11:04:46.482Z,987.07
2022-11-24T11:04:56.982Z,987.07
2022-11-24T11:05:07.493Z,987.09
2022-11-24T11:05:18.005Z,987.09
2022-11-24T11:05:28.517Z,987.07
2022-11-24T11:05:39.022Z,987.08
2022-11-24T11:05:49.534Z,987.07
2022-11-24T11:06:00.043Z,987.07
2022-11-24T11:06:10.559Z,987.07
2022-11-24T11:06:21.069Z,987.07
2022-11-24T11:06:31.617Z,987.08
2022-11-24T11:06:42.090Z,987.09
2022-11-24T11:06:52.601Z,987.10
2022-11-24T11:07:03.112Z,987.07
2022-11-24T11:07:13.662Z,987.06
2022-11-24T11:07:24.212Z,987.03
2022-11-24T11:07:34.719Z,987.04
2022-11-24T11:07:45.218Z,987.07
2022-11-24T11:07:59.649Z,987.08
2022-11-24T11:08:07.270Z,987.08
2022-11-24T11:08:16.693Z,987.08
2022-11-24T11:08:27.202Z,987.06
2022-11-24T11:08:37.710Z,987.03
2022-11-24T11:08:48.221Z,987.05
2022-11-24T11:08:58.730Z,987.06
2022-11-24T11:09:09.241Z,987.07
2022-11-24T11:09:19.753Z,987.08
2022-11-24T11:09:30.262Z,987.08
2022-11-24T11:09:40.776Z,987.06
2022-11-24T11:09:51.304Z,987.06
2022-11-24T11:10:01.805Z,987.09
2022-11-24T11:10:12.310Z,987.08
2022-11-24T11:10:22.821Z,987.08
2022-11-24T11:10:33.332Z,987.08
2022-11-24T11:10:43.848Z,987.09
2022-11-24T11:10:54.360Z,987.08
2022-11-24T11:11:04.875Z,987.08
2022-11-24T11:11:15.387Z,987.07
2022-11-24T11:11:25.897Z,987.08
2022-11-24T11:11:36.436Z,987.07
2022-11-24T11:11:46.927Z,987.08
2022-11-24T11:11:59.162Z,987.09
2022-11-24T11:12:28.038Z,987.08
2022-11-24T11:12:43.978Z,987.08
2022-11-24T11:12:44.879Z,987.08
2022-11-24T11:12:49.996Z,987.08
2022-11-24T11:13:00.507Z,987.09
2022-11-24T11:13:11.018Z,987.10
2022-11-24T11:13:21.530Z,987.09
2022-11-24T11:13:32.037Z,987.11
2022-11-24T11:13:42.546Z,987.10
2022-11-24T11:13:56.838Z,987.09
2022-11-24T11:14:05.005Z,987.10
2022-11-24T11:14:14.081Z,987.09